Time;durP1;ratioP1;P1;durP2;ratioP2;P2;SDS_P1;SDS_P2;PMS_P1;PMS_P2;Temp;Humidity;BMP_temperature;BMP_pressure;BME280_temperature;BME280_humidity;BME280_pressure;Samples;Min_cycle;Max_cycle;Signal;HPM_P1;HPM_P2
2022/06/17 00:00:59;;;;;;;13.73;12.32;;;13.60;99.90;;;;;;5006520;28;20141;-35
2022/06/17 00:03:27;;;;;;;16.67;13.05;;;13.50;99.90;;;;;;5016333;28;20073;-35
2022/06/17 00:05:55;;;;;;;15.50;12.90;;;13.60;99.90;;;;;;5009474;28;20042;-35
2022/06/17 00:08:42;;;;;;;13.63;12.05;;;13.40;99.90;;;;;;4992717;28;20048;-35
2022/06/17 00:11:17;;;;;;;14.00;11.88;;;13.40;99.90;;;;;;5009481;28;20050;-35
2022/06/17 00:13:43;;;;;;;15.55;11.88;;;13.30;99.90;;;;;;5008371;28;20049;-35
2022/06/17 00:16:14;;;;;;;15.30;12.88;;;13.40;99.90;;;;;;4991836;28;20046;-36
2022/06/17 00:18:41;;;;;;;16.58;11.65;;;13.40;99.90;;;;;;5015080;28;20571;-35
2022/06/17 00:21:19;;;;;;;16.25;13.00;;;13.40;99.90;;;;;;5032459;28;20524;-35
2022/06/17 00:23:45;;;;;;;16.42;14.73;;;13.40;99.90;;;;;;5031096;28;20057;-35
2022/06/17 00:26:11;;;;;;;17.20;14.88;;;13.40;99.90;;;;;;4992688;28;20056;-36
2022/06/17 00:28:37;;;;;;;18.52;15.70;;;13.20;99.90;;;;;;5004074;28;20053;-35
2022/06/17 00:31:02;;;;;;;18.73;15.25;;;13.30;99.90;;;;;;5020720;28;20084;-35
2022/06/17 00:33:28;;;;;;;17.38;15.05;;;13.30;99.90;;;;;;5031371;28;20046;-35
2022/06/17 00:35:55;;;;;;;21.67;15.40;;;13.20;99.90;;;;;;5021325;28;20038;-35
2022/06/17 00:38:28;;;;;;;17.02;14.88;;;13.10;99.90;;;;;;5000762;28;20390;-35
2022/06/17 00:40:55;;;;;;;18.05;14.90;;;13.10;99.90;;;;;;5019132;28;20112;-35
2022/06/17 00:43:33;;;;;;;17.08;14.57;;;13.00;99.90;;;;;;5011718;28;20050;-35
2022/06/17 00:46:17;;;;;;;16.35;14.25;;;13.00;99.90;;;;;;5012611;28;20508;-35
2022/06/17 00:48:52;;;;;;;15.18;13.55;;;13.10;99.90;;;;;;4999742;28;20073;-35
2022/06/17 00:51:24;;;;;;;20.08;15.38;;;13.10;99.90;;;;;;5007761;28;20592;-35
2022/06/17 00:53:55;;;;;;;17.05;13.68;;;12.90;99.90;;;;;;4996002;28;20050;-35
2022/06/17 00:56:32;;;;;;;17.23;13.88;;;12.90;99.90;;;;;;4995999;28;20050;-35
2022/06/17 00:59:10;;;;;;;16.92;14.15;;;13.00;99.90;;;;;;5007253;28;20469;-35
2022/06/17 01:01:50;;;;;;;16.80;13.77;;;12.90;99.90;;;;;;5007283;28;20056;-35
2022/06/17 01:04:20;;;;;;;15.57;12.82;;;12.90;99.90;;;;;;5005908;28;20046;-35
2022/06/17 01:07:00;;;;;;;14.85;12.60;;;13.00;99.90;;;;;;4979042;28;20050;-36
2022/06/17 01:12:21;;;;;;;14.95;12.68;;;13.00;99.90;;;;;;5011692;28;20472;-35
2022/06/17 01:14:47;;;;;;;14.68;12.93;;;13.00;99.90;;;;;;5005568;28;20117;-35
2022/06/17 01:17:16;;;;;;;17.15;12.48;;;13.00;99.90;;;;;;4978160;28;20038;-35
2022/06/17 01:19:47;;;;;;;16.27;12.45;;;13.00;99.90;;;;;;5011939;28;20055;-35
2022/06/17 01:22:27;;;;;;;14.68;12.15;;;13.00;99.90;;;;;;5011225;28;20084;-35
2022/06/17 01:25:07;;;;;;;14.93;12.13;;;12.90;99.90;;;;;;5011075;28;20524;-35
2022/06/17 01:27:36;;;;;;;13.73;11.25;;;13.00;99.90;;;;;;4995062;28;20162;-35
2022/06/17 01:30:05;;;;;;;13.32;11.93;;;13.00;99.90;;;;;;5011436;28;20408;-35
2022/06/17 01:32:37;;;;;;;15.23;11.80;;;12.90;99.90;;;;;;5010503;28;20056;-35
2022/06/17 01:35:04;;;;;;;14.25;11.15;;;12.90;99.90;;;;;;5011269;28;20048;-35
2022/06/17 01:37:31;;;;;;;14.60;11.80;;;12.90;99.90;;;;;;4978586;28;20392;-36
2022/06/17 01:39:59;;;;;;;15.05;12.70;;;12.90;99.90;;;;;;5026120;28;20137;-35
2022/06/17 01:42:26;;;;;;;13.55;11.10;;;12.90;99.90;;;;;;5014862;28;20136;-35
2022/06/17 01:44:54;;;;;;;16.52;12.20;;;12.90;99.90;;;;;;5011318;28;20054;-35
2022/06/17 01:47:24;;;;;;;14.68;11.43;;;12.80;99.90;;;;;;4995359;28;20046;-35
2022/06/17 01:50:01;;;;;;;16.40;11.70;;;12.80;99.90;;;;;;5011278;28;20054;-35
2022/06/17 01:53:05;;;;;;;14.73;11.10;;;12.90;99.90;;;;;;5021988;28;20044;-35
2022/06/17 01:55:53;;;;;;;14.68;11.05;;;12.90;99.90;;;;;;5009657;28;20084;-35
2022/06/17 01:58:28;;;;;;;14.73;11.43;;;12.80;99.90;;;;;;4980701;28;20091;-35
2022/06/17 02:00:55;;;;;;;14.73;11.63;;;12.90;99.90;;;;;;5016318;28;20421;-35
2022/06/17 02:03:23;;;;;;;14.73;11.48;;;12.90;99.90;;;;;;5018481;28;20785;-35
2022/06/17 02:05:53;;;;;;;18.45;12.43;;;12.90;99.90;;;;;;5010688;28;20565;-35
2022/06/17 02:08:19;;;;;;;20.25;12.25;;;12.90;99.90;;;;;;4976872;28;20037;-35
2022/06/17 02:10:49;;;;;;;18.55;11.85;;;12.90;99.90;;;;;;4992791;28;20048;-35
2022/06/17 02:13:16;;;;;;;17.13;13.20;;;12.90;99.90;;;;;;5009683;28;20108;-35
2022/06/17 02:15:43;;;;;;;14.88;11.48;;;12.90;99.90;;;;;;5000020;28;20112;-34
2022/06/17 02:18:15;;;;;;;15.18;12.18;;;12.90;99.90;;;;;;5003181;28;20049;-35
2022/06/17 02:20:42;;;;;;;18.17;11.57;;;12.90;99.90;;;;;;5030281;28;20045;-35
2022/06/17 02:23:08;;;;;;;13.23;11.35;;;12.90;99.90;;;;;;5029447;28;20056;-35
2022/06/17 02:25:47;;;;;;;15.30;12.68;;;12.90;99.90;;;;;;5011000;28;20059;-35
2022/06/17 02:28:15;;;;;;;13.68;11.75;;;12.90;99.90;;;;;;4982777;28;20100;-35
2022/06/17 02:30:43;;;;;;;15.02;12.60;;;12.90;99.90;;;;;;5009242;28;20050;-35
2022/06/17 02:33:11;;;;;;;15.70;11.95;;;12.80;99.90;;;;;;5009590;28;20417;-35
2022/06/17 02:35:51;;;;;;;14.80;11.45;;;12.80;99.90;;;;;;5013023;28;20054;-35
2022/06/17 02:38:22;;;;;;;14.02;11.55;;;12.80;99.90;;;;;;4994713;28;20038;-35
2022/06/17 02:40:52;;;;;;;15.32;11.25;;;12.80;99.90;;;;;;4992820;28;20444;-35
2022/06/17 02:43:22;;;;;;;14.07;11.57;;;12.70;99.90;;;;;;5009069;28;20468;-35
2022/06/17 02:46:01;;;;;;;14.77;11.73;;;12.80;99.90;;;;;;4992856;28;20100;-35
2022/06/17 02:48:33;;;;;;;15.00;11.90;;;12.70;99.90;;;;;;4975839;28;20092;-35
2022/06/17 02:51:01;;;;;;;14.27;12.32;;;12.80;99.90;;;;;;5010197;28;20092;-35
2022/06/17 02:53:32;;;;;;;15.85;12.00;;;12.70;99.90;;;;;;5009191;28;20054;-35
2022/06/17 02:55:58;;;;;;;;;;;12.80;99.90;;;;;;5011594;28;20073;-35
2022/06/17 02:58:43;;;;;;;14.30;11.48;;;12.80;99.90;;;;;;4995826;28;19940;-35
2022/06/17 03:01:36;;;;;;;11.68;10.40;;;12.80;99.90;;;;;;5017459;28;20547;-35
2022/06/17 03:04:11;;;;;;;12.45;10.95;;;12.70;99.90;;;;;;5018950;28;20057;-35
2022/06/17 03:06:39;;;;;;;15.00;11.55;;;12.70;99.90;;;;;;4998074;28;20041;-35
2022/06/17 03:09:25;;;;;;;14.00;11.98;;;12.80;99.90;;;;;;5005478;28;20049;-35
2022/06/17 03:12:13;;;;;;;14.13;11.70;;;12.80;99.90;;;;;;5009801;28;20038;-35
2022/06/17 03:15:02;;;;;;;14.45;11.57;;;12.80;99.90;;;;;;5005359;28;20391;-35
2022/06/17 03:17:29;;;;;;;15.57;11.27;;;12.80;99.90;;;;;;4990130;28;20432;-35
2022/06/17 03:19:58;;;;;;;18.13;11.27;;;12.80;99.90;;;;;;4992115;28;20107;-35
2022/06/17 03:22:25;;;;;;;18.67;11.25;;;12.80;99.90;;;;;;5008928;28;20034;-35
2022/06/17 03:25:14;;;;;;;14.13;11.25;;;12.80;99.90;;;;;;5009889;28;20151;-35
2022/06/17 03:27:47;;;;;;;15.23;11.70;;;12.90;99.90;;;;;;4993491;28;20038;-35
2022/06/17 03:30:23;;;;;;;15.35;11.35;;;12.90;99.90;;;;;;5009506;28;20061;-35
2022/06/17 03:33:04;;;;;;;13.15;11.15;;;12.90;99.90;;;;;;4991440;28;20049;-35
2022/06/17 03:35:33;;;;;;;14.30;11.45;;;12.90;99.90;;;;;;5014511;28;20054;-35
2022/06/17 03:38:24;;;;;;;14.15;11.60;;;13.00;99.90;;;;;;5001266;28;20042;-35
2022/06/17 03:41:00;;;;;;;15.18;10.60;;;13.00;99.90;;;;;;4999010;28;20073;-35
2022/06/17 03:43:36;;;;;;;12.80;10.43;;;13.00;99.90;;;;;;4990743;28;20049;-35
2022/06/17 03:46:05;;;;;;;17.02;10.90;;;13.00;99.90;;;;;;5009961;28;20053;-35
2022/06/17 03:49:02;;;;;;;13.98;11.15;;;13.00;99.90;;;;;;4996820;28;20512;-35
2022/06/17 03:51:30;;;;;;;14.52;10.75;;;13.10;99.90;;;;;;5026620;28;20121;-35
2022/06/17 03:53:56;;;;;;;14.80;10.70;;;13.10;99.90;;;;;;5029443;28;20132;-35
2022/06/17 03:56:32;;;;;;;14.77;10.80;;;13.10;99.90;;;;;;4998798;28;20099;-35
2022/06/17 03:59:02;;;;;;;14.05;10.85;;;13.10;99.90;;;;;;5016339;28;20057;-35
2022/06/17 04:01:44;;;;;;;14.15;10.80;;;13.10;99.90;;;;;;5021524;28;20042;-35
2022/06/17 04:04:17;;;;;;;17.15;11.77;;;13.10;99.90;;;;;;5012013;28;20530;-35
2022/06/17 04:06:45;;;;;;;15.75;10.50;;;13.10;99.90;;;;;;4997744;28;20045;-36
2022/06/17 04:09:21;;;;;;;13.13;10.07;;;13.20;99.90;;;;;;5015077;28;20049;-35
2022/06/17 04:11:49;;;;;;;14.10;11.25;;;13.20;99.90;;;;;;5022151;28;20045;-36
2022/06/17 04:14:41;;;;;;;14.25;11.15;;;13.20;99.90;;;;;;5013434;28;20059;-35
2022/06/17 04:17:42;;;;;;;13.82;9.85;;;13.30;99.90;;;;;;4996887;28;20481;-35
2022/06/17 04:20:17;;;;;;;12.23;10.13;;;13.30;99.90;;;;;;5013342;28;20049;-35
2022/06/17 04:22:48;;;;;;;13.40;9.80;;;13.40;99.90;;;;;;5012085;28;20049;-35
2022/06/17 04:25:21;;;;;;;15.45;10.50;;;13.40;99.90;;;;;;5012906;28;20052;-36
2022/06/17 04:27:57;;;;;;;13.13;9.50;;;13.50;99.90;;;;;;4996272;28;20042;-35
2022/06/17 04:30:31;;;;;;;12.23;10.15;;;13.50;99.90;;;;;;5012369;28;20519;-35
2022/06/17 04:33:00;;;;;;;12.18;8.68;;;13.60;99.90;;;;;;5023134;28;20049;-35
2022/06/17 04:35:26;;;;;;;10.60;9.02;;;13.60;99.90;;;;;;5016828;28;20042;-35
2022/06/17 04:37:52;;;;;;;12.73;9.30;;;13.60;99.90;;;;;;4997306;28;20060;-35
2022/06/17 04:40:47;;;;;;;14.75;9.38;;;13.70;99.90;;;;;;5017605;28;20037;-35
2022/06/17 04:43:28;;;;;;;14.77;8.82;;;13.80;99.90;;;;;;5007262;28;20057;-35
2022/06/17 04:46:20;;;;;;;13.88;8.15;;;13.80;99.90;;;;;;5004273;28;20046;-35
2022/06/17 04:48:48;;;;;;;12.75;9.18;;;13.90;99.90;;;;;;5007176;28;20042;-35
2022/06/17 04:51:14;;;;;;;12.70;8.40;;;13.90;99.90;;;;;;5012362;28;20392;-36
2022/06/17 04:53:44;;;;;;;13.73;8.57;;;13.90;99.90;;;;;;5011006;28;20588;-36
2022/06/17 04:56:21;;;;;;;11.70;7.53;;;14.00;99.90;;;;;;5004368;28;20042;-36
2022/06/17 04:58:46;;;;;;;10.98;7.80;;;14.00;99.90;;;;;;5007791;28;20285;-35
2022/06/17 05:01:18;;;;;;;15.02;8.45;;;14.10;99.90;;;;;;5004595;28;20064;-35
2022/06/17 05:03:44;;;;;;;10.73;8.52;;;14.10;99.90;;;;;;5007312;28;20058;-35
2022/06/17 05:06:10;;;;;;;11.32;7.90;;;14.10;99.90;;;;;;5004083;28;20281;-36
2022/06/17 05:08:41;;;;;;;10.43;7.95;;;14.20;99.90;;;;;;4993306;28;20401;-35
2022/06/17 05:11:24;;;;;;;12.18;7.95;;;14.20;99.90;;;;;;5012337;28;20406;-35
2022/06/17 05:14:01;;;;;;;10.68;8.15;;;14.30;99.90;;;;;;4987152;28;20049;-35
2022/06/17 05:16:27;;;;;;;10.82;7.43;;;14.30;99.90;;;;;;5004443;28;20492;-35
2022/06/17 05:18:53;;;;;;;9.75;7.32;;;14.30;99.90;;;;;;5005871;28;20056;-35
2022/06/17 05:21:22;;;;;;;10.93;7.38;;;14.40;99.90;;;;;;4976837;28;20417;-35
2022/06/17 05:23:50;;;;;;;11.27;7.57;;;14.40;99.90;;;;;;5004453;28;20561;-35
2022/06/17 05:26:16;;;;;;;10.32;7.38;;;14.50;99.90;;;;;;5001537;28;20401;-37
2022/06/17 05:28:42;;;;;;;9.27;7.10;;;14.50;99.90;;;;;;5016920;28;20049;-36
2022/06/17 05:31:16;;;;;;;11.23;7.35;;;14.50;99.90;;;;;;5001851;28;20034;-36
2022/06/17 05:33:41;;;;;;;10.13;7.47;;;14.60;99.90;;;;;;5019157;28;20045;-36
2022/06/17 05:36:08;;;;;;;9.27;6.82;;;14.60;99.90;;;;;;5017463;28;20041;-36
2022/06/17 05:38:33;;;;;;;13.43;7.05;;;14.70;99.90;;;;;;4992804;28;20485;-36
2022/06/17 05:40:59;;;;;;;10.85;7.35;;;14.70;99.90;;;;;;5021828;28;20060;-36
2022/06/17 05:43:25;;;;;;;12.10;7.38;;;14.80;99.90;;;;;;5018468;28;20046;-36
2022/06/17 05:45:50;;;;;;;10.35;6.97;;;14.80;99.90;;;;;;5009881;28;20412;-36
2022/06/17 05:48:16;;;;;;;10.80;6.88;;;14.90;99.90;;;;;;4994192;28;20045;-36
2022/06/17 05:50:43;;;;;;;9.10;6.35;;;14.90;99.90;;;;;;5011029;28;20054;-35
2022/06/17 05:53:12;;;;;;;11.05;7.03;;;15.00;99.90;;;;;;4998001;28;20046;-36
2022/06/17 05:55:38;;;;;;;9.52;6.82;;;15.10;99.90;;;;;;5010771;28;20053;-36
2022/06/17 05:58:05;;;;;;;12.10;6.90;;;15.10;99.90;;;;;;4993928;28;20398;-36
2022/06/17 06:00:32;;;;;;;12.15;7.15;;;15.20;99.90;;;;;;5003269;28;20042;-36
2022/06/17 06:03:00;;;;;;;10.20;7.15;;;15.20;99.90;;;;;;5016391;28;20056;-35
2022/06/17 06:05:28;;;;;;;12.40;7.60;;;15.30;99.90;;;;;;4995760;28;20045;-36
2022/06/17 06:07:54;;;;;;;9.27;6.78;;;15.30;99.90;;;;;;4994800;28;20157;-36
2022/06/17 06:10:20;;;;;;;10.35;7.22;;;15.40;99.90;;;;;;5010974;28;20541;-36
2022/06/17 06:13:01;;;;;;;9.38;7.90;;;15.40;99.90;;;;;;5009938;28;20506;-36
2022/06/17 06:15:31;;;;;;;9.70;7.53;;;15.50;99.90;;;;;;4984824;28;20512;-35
2022/06/17 06:17:57;;;;;;;11.70;7.15;;;15.50;99.90;;;;;;4988124;28;20050;-36
2022/06/17 06:20:23;;;;;;;12.25;7.43;;;15.60;99.90;;;;;;5030316;28;20503;-35
2022/06/17 06:22:49;;;;;;;12.63;7.30;;;15.60;99.90;;;;;;5017181;28;20072;-36
2022/06/17 06:25:18;;;;;;;8.52;7.22;;;15.70;99.90;;;;;;5030334;28;20111;-36
2022/06/17 06:27:43;;;;;;;10.30;7.40;;;15.70;99.90;;;;;;4994981;28;20563;-36
2022/06/17 06:30:18;;;;;;;8.93;6.90;;;15.80;99.90;;;;;;5024665;28;20051;-36
2022/06/17 06:33:02;;;;;;;10.30;7.30;;;15.90;99.90;;;;;;5029333;28;20107;-35
2022/06/17 06:35:35;;;;;;;10.93;7.20;;;16.00;99.90;;;;;;5018703;28;20512;-36
2022/06/17 06:38:01;;;;;;;9.10;7.38;;;16.10;99.90;;;;;;4976500;28;20069;-36
2022/06/17 06:40:28;;;;;;;10.00;6.78;;;16.20;99.90;;;;;;5014303;28;20132;-36
2022/06/17 06:42:55;;;;;;;9.52;6.43;;;16.30;99.90;;;;;;5018123;28;20133;-36
2022/06/17 06:45:33;;;;;;;10.32;7.20;;;16.40;99.90;;;;;;5018318;28;20064;-36
2022/06/17 06:48:01;;;;;;;10.07;7.53;;;16.50;99.90;;;;;;5000792;28;20228;-36
2022/06/17 06:50:29;;;;;;;9.32;6.72;;;16.60;99.90;;;;;;5002865;28;20408;-36
2022/06/17 06:52:55;;;;;;;8.23;6.53;;;16.70;99.90;;;;;;5016920;28;20179;-35
2022/06/17 06:55:21;;;;;;;7.47;6.10;;;16.80;99.90;;;;;;5020575;28;20073;-36
2022/06/17 06:57:51;;;;;;;11.30;6.30;;;16.90;99.90;;;;;;5004789;28;20481;-35
2022/06/17 07:00:26;;;;;;;12.45;6.85;;;17.00;99.90;;;;;;5000594;28;20046;-35
2022/06/17 07:02:52;;;;;;;10.82;6.45;;;17.10;99.90;;;;;;5026827;28;20052;-35
2022/06/17 07:05:18;;;;;;;8.45;6.45;;;17.20;99.90;;;;;;4990190;28;20057;-35
2022/06/17 07:07:44;;;;;;;9.73;5.90;;;17.30;99.90;;;;;;5010692;28;20171;-35
2022/06/17 07:10:14;;;;;;;9.30;5.72;;;17.40;99.90;;;;;;5008532;28;20128;-35
2022/06/17 07:12:39;;;;;;;9.63;6.28;;;17.40;99.90;;;;;;5013714;28;20429;-35
2022/06/17 07:15:06;;;;;;;7.18;5.85;;;17.50;99.90;;;;;;4993868;28;20046;-35
2022/06/17 07:17:32;;;;;;;12.45;6.20;;;17.60;99.90;;;;;;4990325;28;20077;-36
2022/06/17 07:19:57;;;;;;;7.38;5.40;;;17.60;99.90;;;;;;5009932;28;20294;-36
2022/06/17 07:22:23;;;;;;;9.02;5.93;;;17.70;99.90;;;;;;5008489;28;20050;-36
2022/06/17 07:24:49;;;;;;;9.20;5.72;;;17.70;99.90;;;;;;5009981;28;20081;-35
2022/06/17 07:27:15;;;;;;;8.13;5.55;;;17.80;99.90;;;;;;4993479;28;20124;-36
2022/06/17 07:29:41;;;;;;;8.63;6.35;;;17.90;99.90;;;;;;5008504;28;20500;-36
2022/06/17 07:32:07;;;;;;;8.30;6.10;;;18.00;99.90;;;;;;5013908;28;20026;-36
2022/06/17 07:34:33;;;;;;;8.10;5.78;;;18.10;99.90;;;;;;5015005;28;20120;-36
2022/06/17 07:39:55;;;;;;;8.18;5.63;;;18.20;99.90;;;;;;5004315;28;20048;-35
2022/06/17 07:42:27;;;;;;;10.68;6.00;;;18.30;99.90;;;;;;5014525;28;20132;-36
2022/06/17 07:44:53;;;;;;;7.35;5.28;;;18.40;99.90;;;;;;5006539;28;20460;-36
2022/06/17 07:47:21;;;;;;;7.13;5.68;;;18.50;99.90;;;;;;4992931;28;20042;-36
2022/06/17 07:49:47;;;;;;;7.28;5.53;;;18.60;99.90;;;;;;5008157;28;20053;-36
2022/06/17 07:52:13;;;;;;;10.02;5.80;;;18.60;99.90;;;;;;5027788;28;20050;-36
2022/06/17 07:54:39;;;;;;;8.32;5.60;;;18.70;99.90;;;;;;5008647;28;20370;-36
2022/06/17 07:57:05;;;;;;;7.93;5.28;;;18.80;99.90;;;;;;4986030;28;20059;-36
2022/06/17 07:59:31;;;;;;;8.23;5.80;;;18.90;99.90;;;;;;5003925;28;20069;-36
2022/06/17 08:01:57;;;;;;;10.82;4.75;;;19.00;99.90;;;;;;5009612;28;20042;-36
2022/06/17 08:04:22;;;;;;;7.78;5.45;;;19.10;99.90;;;;;;4990743;28;20126;-36
2022/06/17 08:06:51;;;;;;;7.80;5.53;;;19.20;99.90;;;;;;4983396;28;20120;-36
2022/06/17 08:09:20;;;;;;;10.65;5.90;;;19.30;99.90;;;;;;5007831;28;20073;-36
2022/06/17 08:11:48;;;;;;;8.98;5.72;;;19.30;99.90;;;;;;5009345;28;20046;-36
2022/06/17 08:14:14;;;;;;;8.85;5.60;;;19.40;99.90;;;;;;4998221;28;20561;-36
2022/06/17 08:16:40;;;;;;;6.43;5.50;;;19.40;99.90;;;;;;4984736;28;20049;-36
2022/06/17 08:19:07;;;;;;;6.32;5.60;;;19.50;99.90;;;;;;5006404;28;20653;-36
2022/06/17 08:21:34;;;;;;;9.40;6.10;;;19.60;99.90;;;;;;5009348;28;20058;-36
2022/06/17 08:24:00;;;;;;;10.85;5.45;;;19.70;99.90;;;;;;5011183;28;20055;-36
2022/06/17 08:26:26;;;;;;;9.43;5.70;;;19.80;99.90;;;;;;5007557;28;20418;-36
2022/06/17 08:28:52;;;;;;;7.20;5.88;;;19.90;99.90;;;;;;5004692;28;20063;-36
2022/06/17 08:31:18;;;;;;;10.77;5.75;;;20.00;99.90;;;;;;5001687;28;20041;-36
2022/06/17 08:33:44;;;;;;;10.30;5.60;;;20.10;99.90;;;;;;5026209;28;20138;-36
2022/06/17 08:36:16;;;;;;;10.05;5.40;;;20.10;99.90;;;;;;5011909;28;20053;-37
2022/06/17 08:38:46;;;;;;;;;;;20.30;99.90;;;;;;5011461;28;20489;-36
2022/06/17 08:41:33;;;;;;;9.07;5.07;;;20.30;99.90;;;;;;5011164;28;19965;-36
2022/06/17 08:44:11;;;;;;;7.55;5.30;;;20.40;99.90;;;;;;5011348;28;20058;-36
2022/06/17 08:46:45;;;;;;;7.95;4.78;;;20.40;99.90;;;;;;4994096;28;20046;-36
2022/06/17 08:49:49;;;;;;;6.50;5.28;;;20.40;99.90;;;;;;4985362;28;20513;-36
2022/06/17 08:52:21;;;;;;;7.03;4.28;;;20.40;99.90;;;;;;5002692;28;20160;-36
2022/06/17 08:55:24;;;;;;;10.65;5.30;;;20.50;99.90;;;;;;5006292;28;20103;-36
2022/06/17 08:58:00;;;;;;;8.80;5.05;;;20.60;99.90;;;;;;5009479;28;20531;-36
2022/06/17 09:00:48;;;;;;;8.88;5.00;;;20.60;99.90;;;;;;5006766;28;20133;-36
2022/06/17 09:03:26;;;;;;;6.75;4.88;;;20.60;99.90;;;;;;4999745;28;20058;-36
2022/06/17 09:05:55;;;;;;;7.40;4.55;;;20.70;99.90;;;;;;5008559;28;20056;-36
2022/06/17 09:08:36;;;;;;;11.90;4.68;;;20.70;99.90;;;;;;4995540;28;20049;-36
2022/06/17 09:11:20;;;;;;;6.57;4.18;;;20.80;99.90;;;;;;5011447;28;20058;-36
2022/06/17 09:14:10;;;;;;;7.22;5.22;;;20.80;99.90;;;;;;5010747;28;20500;-36
2022/06/17 09:17:12;;;;;;;6.88;4.18;;;20.90;99.90;;;;;;4987125;28;20054;-36
2022/06/17 09:19:43;;;;;;;5.38;3.92;;;20.90;99.90;;;;;;5011168;28;20564;-36
2022/06/17 09:22:12;;;;;;;7.63;4.65;;;21.00;99.90;;;;;;5011731;28;20053;-37
2022/06/17 09:24:41;;;;;;;7.45;4.50;;;21.00;99.90;;;;;;4961798;28;20077;-36
2022/06/17 09:27:12;;;;;;;7.57;4.78;;;21.10;99.90;;;;;;4983243;28;20069;-36
2022/06/17 09:29:59;;;;;;;8.52;4.47;;;21.20;99.90;;;;;;5010562;28;20057;-36
2022/06/17 09:32:39;;;;;;;7.68;4.90;;;21.30;99.90;;;;;;5008973;28;20413;-36
2022/06/17 09:35:24;;;;;;;10.40;4.25;;;21.40;99.90;;;;;;5011093;28;20061;-36
2022/06/17 09:38:10;;;;;;;6.07;4.68;;;21.50;99.90;;;;;;4994510;28;20083;-36
2022/06/17 09:40:41;;;;;;;7.80;4.68;;;21.70;99.90;;;;;;4992270;28;20049;-36
2022/06/17 09:43:18;;;;;;;6.22;4.07;;;21.80;99.90;;;;;;5005260;28;20041;-36
2022/06/17 09:45:51;;;;;;;6.40;4.43;;;21.80;99.90;;;;;;5007232;28;20437;-36
2022/06/17 09:48:54;;;;;;;8.63;4.97;;;21.90;99.90;;;;;;4993637;28;20042;-36
2022/06/17 09:51:43;;;;;;;6.75;4.65;;;22.00;99.90;;;;;;4957116;28;20281;-37
2022/06/17 09:54:24;;;;;;;8.18;4.38;;;22.00;99.90;;;;;;5008588;28;20042;-36
2022/06/17 09:57:05;;;;;;;9.93;3.80;;;22.00;99.90;;;;;;4973180;28;20137;-37
2022/06/17 09:59:44;;;;;;;7.38;3.50;;;22.00;99.90;;;;;;4990746;28;20050;-37
2022/06/17 10:02:27;;;;;;;6.85;3.53;;;22.00;99.90;;;;;;5005398;28;20042;-37
2022/06/17 10:04:55;;;;;;;6.82;3.45;;;22.10;99.90;;;;;;4991052;28;20050;-36
2022/06/17 10:08:01;;;;;;;5.75;3.03;;;22.10;99.90;;;;;;4976444;28;20345;-37
2022/06/17 10:10:47;;;;;;;10.00;3.75;;;22.20;99.90;;;;;;4929279;29;20138;-36
2022/06/17 10:13:19;;;;;;;7.32;3.70;;;22.10;99.90;;;;;;5001156;28;20046;-36
2022/06/17 10:19:05;;;;;;;5.05;3.67;;;22.20;99.90;;;;;;4984881;28;20045;-36
2022/06/17 10:21:48;;;;;;;4.87;3.90;;;22.20;99.90;;;;;;5013991;28;20071;-37
2022/06/17 10:24:16;;;;;;;5.75;3.55;;;22.20;99.90;;;;;;5006895;28;20489;-36
2022/06/17 10:27:11;;;;;;;4.05;3.25;;;22.20;99.90;;;;;;4999830;28;20396;-36
2022/06/17 10:30:00;;;;;;;6.85;3.65;;;22.30;99.90;;;;;;4967688;28;20048;-37
2022/06/17 10:32:27;;;;;;;6.15;3.40;;;22.40;99.90;;;;;;4991990;28;20475;-36
2022/06/17 10:34:58;;;;;;;9.65;3.50;;;22.40;99.90;;;;;;5010143;28;20050;-37
2022/06/17 10:37:27;;;;;;;7.57;4.30;;;22.40;99.90;;;;;;4977009;28;20072;-36
2022/06/17 10:39:54;;;;;;;8.25;3.88;;;22.50;99.90;;;;;;5020668;28;20100;-36
2022/06/17 10:42:21;;;;;;;7.75;4.03;;;22.60;99.90;;;;;;5005555;28;20062;-37
2022/06/17 10:44:50;;;;;;;6.25;4.13;;;22.60;99.90;;;;;;4973768;28;20128;-37
2022/06/17 10:47:24;;;;;;;9.02;4.22;;;22.70;99.90;;;;;;4974356;28;20104;-37
2022/06/17 10:49:55;;;;;;;6.05;3.90;;;22.80;99.90;;;;;;5009535;28;20501;-37
2022/06/17 10:52:26;;;;;;;7.72;3.95;;;23.00;99.90;;;;;;5007733;28;20052;-37
2022/06/17 10:54:54;;;;;;;9.05;4.03;;;23.00;99.90;;;;;;4992177;28;20133;-37
2022/06/17 10:57:29;;;;;;;8.60;5.05;;;23.10;99.90;;;;;;4992391;28;20065;-36
2022/06/17 10:59:55;;;;;;;8.25;4.82;;;23.10;99.90;;;;;;5007425;28;20054;-36
2022/06/17 11:02:21;;;;;;;9.88;5.13;;;23.10;99.90;;;;;;5009088;28;20046;-37
2022/06/17 11:04:54;;;;;;;6.60;4.28;;;23.10;99.90;;;;;;5008178;28;20053;-37
2022/06/17 11:07:47;;;;;;;8.88;4.65;;;23.20;99.90;;;;;;4993456;28;20482;-37
2022/06/17 11:10:13;;;;;;;7.80;5.20;;;23.30;99.90;;;;;;5015963;28;20087;-37
2022/06/17 11:13:05;;;;;;;9.30;6.00;;;23.40;99.90;;;;;;5008099;28;20124;-37
2022/06/17 11:15:42;;;;;;;10.90;5.93;;;23.50;99.90;;;;;;4980767;28;20054;-37
2022/06/17 11:18:17;;;;;;;9.27;5.72;;;23.60;99.90;;;;;;4970730;28;20040;-37
2022/06/17 11:21:02;;;;;;;9.55;6.22;;;23.60;99.90;;;;;;5003063;28;20505;-37
2022/06/17 11:23:33;;;;;;;9.00;6.20;;;23.70;99.90;;;;;;5013588;28;20063;-37
2022/06/17 11:26:26;;;;;;;7.53;5.28;;;23.70;99.90;;;;;;4994137;28;20591;-37
2022/06/17 11:28:56;;;;;;;8.15;5.55;;;23.80;99.90;;;;;;5006998;28;20394;-36
2022/06/17 11:31:21;;;;;;;8.02;4.60;;;23.90;99.90;;;;;;5011664;28;20125;-36
2022/06/17 11:33:53;;;;;;;6.88;5.30;;;24.00;99.90;;;;;;5013549;28;20072;-36
2022/06/17 11:36:40;;;;;;;6.13;5.25;;;24.10;99.90;;;;;;4984685;28;20752;-37
2022/06/17 11:39:25;;;;;;;8.43;5.15;;;24.10;99.90;;;;;;4970154;28;20529;-37
2022/06/17 11:41:50;;;;;;;7.72;4.70;;;24.10;99.90;;;;;;5011147;28;20053;-36
2022/06/17 11:44:17;;;;;;;7.40;4.55;;;24.20;99.90;;;;;;4987598;28;20050;-37
2022/06/17 11:46:53;;;;;;;6.25;4.70;;;24.30;99.90;;;;;;4993650;28;20042;-37
2022/06/17 11:49:20;;;;;;;6.57;4.68;;;24.30;99.90;;;;;;5006303;28;20057;-37
2022/06/17 11:52:06;;;;;;;7.00;4.20;;;24.40;99.90;;;;;;4977183;28;20084;-37
2022/06/17 11:54:38;;;;;;;6.50;4.00;;;24.40;99.90;;;;;;5009042;28;20046;-37
2022/06/17 11:57:34;;;;;;;5.82;4.00;;;24.50;99.90;;;;;;4992294;28;20175;-37
2022/06/17 12:00:04;;;;;;;5.15;3.78;;;24.60;99.90;;;;;;4997732;28;20060;-37
2022/06/17 12:02:30;;;;;;;5.72;4.00;;;24.80;99.90;;;;;;5009514;28;20050;-37
2022/06/17 12:05:08;;;;;;;6.90;3.85;;;24.90;99.90;;;;;;5011465;28;20046;-36
2022/06/17 12:07:40;;;;;;;6.95;3.55;;;25.00;99.90;;;;;;4989008;28;20066;-36
2022/06/17 12:10:06;;;;;;;10.18;3.90;;;25.20;99.90;;;;;;4987745;28;20042;-37
2022/06/17 12:12:32;;;;;;;6.47;3.72;;;25.30;99.90;;;;;;4987452;28;20042;-37
2022/06/17 12:15:06;;;;;;;3.97;3.58;;;25.40;99.90;;;;;;4988373;28;20125;-36
2022/06/17 12:17:33;;;;;;;4.60;3.05;;;25.50;99.90;;;;;;4975003;28;20506;-37
2022/06/17 12:19:58;;;;;;;5.18;3.28;;;25.70;99.90;;;;;;4991477;28;20516;-37
2022/06/17 12:22:45;;;;;;;8.27;3.38;;;25.70;99.90;;;;;;4994517;28;20051;-36
2022/06/17 12:25:33;;;;;;;4.65;2.60;;;25.80;99.90;;;;;;4992469;28;20466;-37
2022/06/17 12:28:10;;;;;;;4.18;2.63;;;26.00;99.90;;;;;;4974387;28;20153;-37
2022/06/17 12:31:05;;;;;;;5.32;2.70;;;26.20;99.90;;;;;;4991509;28;20042;-37
2022/06/17 12:33:40;;;;;;;4.93;2.95;;;26.30;99.90;;;;;;4981571;28;20045;-37
2022/06/17 12:36:20;;;;;;;3.33;2.58;;;26.30;99.90;;;;;;5009745;28;20100;-37
2022/06/17 12:39:20;;;;;;;5.22;2.78;;;26.30;99.90;;;;;;4995727;28;20065;-37
2022/06/17 12:42:09;;;;;;;10.57;2.90;;;26.40;99.90;;;;;;4985902;28;20540;-37
2022/06/17 12:44:57;;;;;;;3.25;2.67;;;26.50;99.90;;;;;;4999842;28;20464;-37
2022/06/17 12:47:27;;;;;;;5.07;2.60;;;26.50;99.90;;;;;;4979359;28;20050;-37
2022/06/17 12:53:14;;;;;;;4.32;2.15;;;26.30;99.90;;;;;;4988188;28;20050;-37
2022/06/17 12:55:58;;;;;;;7.38;2.55;;;26.30;99.90;;;;;;4991655;28;20486;-37
2022/06/17 12:58:35;;;;;;;3.38;2.40;;;26.30;99.90;;;;;;4963106;28;20083;-37
2022/06/17 13:01:20;;;;;;;4.32;2.20;;;26.20;98.70;;;;;;4971550;28;20402;-37
2022/06/17 13:04:13;;;;;;;5.43;2.05;;;26.10;99.90;;;;;;4974246;28;20086;-37
2022/06/17 13:07:18;;;;;;;5.03;2.25;;;26.10;99.20;;;;;;4961816;28;20153;-37
2022/06/17 13:13:10;;;;;;;5.47;2.33;;;26.00;99.90;;;;;;4976294;28;20054;-37
2022/06/17 13:15:47;;;;;;;7.07;2.60;;;25.90;99.90;;;;;;4986798;28;20059;-37
2022/06/17 13:18:21;;;;;;;3.80;2.60;;;25.90;99.90;;;;;;4975574;28;20050;-37
2022/06/17 13:20:49;;;;;;;6.70;2.40;;;25.90;99.90;;;;;;4971152;28;20494;-37
2022/06/17 13:23:37;;;;;;;4.95;2.38;;;25.90;99.90;;;;;;4994043;28;20441;-37
2022/06/17 13:26:23;;;;;;;3.90;2.13;;;25.80;99.90;;;;;;4945657;28;20451;-37